createdAt,value
2019-05-14T00:02:12.257Z,99965.06
2019-05-14T00:04:42.417Z,99966.91
2019-05-14T00:07:11.573Z,99958.51
2019-05-14T00:09:41.551Z,99960.70
2019-05-14T00:12:11.353Z,99962.52
2019-05-14T00:14:43.174Z,99952.89
2019-05-14T00:17:11.338Z,99961.57
2019-05-14T00:22:11.843Z,99954.98
2019-05-14T00:24:41.962Z,99946.30
2019-05-14T00:27:11.657Z,99946.30
2019-05-14T00:29:41.902Z,99948.49
2019-05-14T00:32:11.244Z,99932.95
2019-05-14T00:34:42.137Z,99931.33
2019-05-14T00:37:11.826Z,99926.98
2019-05-14T00:39:41.632Z,99927.05
2019-05-14T00:42:12.436Z,99916.84
2019-05-14T00:44:53.766Z,99915.98
2019-05-14T00:47:11.423Z,99918.34
2019-05-14T00:49:42.612Z,99918.06
2019-05-14T00:52:12.019Z,99922.34
2019-05-14T00:54:41.659Z,99919.87
2019-05-14T00:57:11.881Z,99927.68
2019-05-14T01:00:52.235Z,99928.86
2019-05-14T01:03:18.797Z,99928.06
2019-05-14T01:05:47.606Z,99922.45
2019-05-14T01:08:16.953Z,99915.47
2019-05-14T01:10:45.408Z,99912.91
2019-05-14T01:13:13.649Z,99912.98
2019-05-14T01:15:41.746Z,99920.13
2019-05-14T01:18:11.371Z,99916.13
2019-05-14T01:20:41.193Z,99915.66
2019-05-14T01:23:08.944Z,99906.86
2019-05-14T01:25:37.520Z,99912.59
2019-05-14T01:28:05.605Z,99911.02
2019-05-14T01:30:32.742Z,99912.69
2019-05-14T01:33:01.743Z,99908.22
2019-05-14T01:35:31.589Z,99905.08
2019-05-14T01:37:59.408Z,99900.33
2019-05-14T01:40:26.831Z,99902.88
2019-05-14T01:42:54.255Z,99902.17
2019-05-14T01:45:27.781Z,99902.17
2019-05-14T01:47:52.144Z,99900.33
2019-05-14T01:50:21.512Z,99893.15
2019-05-14T01:52:51.861Z,99895.04
2019-05-14T01:55:18.596Z,99892.99
2019-05-14T01:57:45.855Z,99885.86
2019-05-14T02:00:14.989Z,99877.81
2019-05-14T02:02:42.694Z,99877.81
2019-05-14T02:05:12.447Z,99880.25
2019-05-14T02:07:42.083Z,99882.52
2019-05-14T02:10:11.757Z,99885.45
2019-05-14T02:14:31.495Z,99880.13
2019-05-14T02:16:58.938Z,99882.70
2019-05-14T02:19:26.411Z,99882.11
2019-05-14T02:21:53.707Z,99880.50
2019-05-14T02:24:21.891Z,99873.20
2019-05-14T02:26:51.449Z,99866.77
2019-05-14T02:29:21.306Z,99861.66
2019-05-14T02:31:50.379Z,99864.56
2019-05-14T02:34:19.953Z,99863.81
2019-05-14T02:36:49.672Z,99864.33
2019-05-14T02:39:19.629Z,99862.13
2019-05-14T02:41:49.956Z,99868.80
2019-05-14T02:44:18.850Z,99866.08
2019-05-14T02:46:46.399Z,99861.56
2019-05-14T02:49:13.897Z,99861.26
2019-05-14T02:51:41.609Z,99864.00
2019-05-14T02:54:10.179Z,99860.75
2019-05-14T02:56:40.294Z,99864.16
2019-05-14T02:59:09.782Z,99868.34
2019-05-14T03:01:40.486Z,99871.59
2019-05-14T03:04:09.124Z,99872.63
2019-05-14T03:06:35.973Z,99863.24
2019-05-14T03:09:05.024Z,99855.20
2019-05-14T03:11:32.509Z,99876.24
2019-05-14T03:14:02.354Z,99867.06
2019-05-14T03:16:35.623Z,99865.27
2019-05-14T03:19:01.358Z,99860.80
2019-05-14T03:21:30.580Z,99861.86
2019-05-14T03:24:00.842Z,99866.27
2019-05-14T03:26:29.317Z,99863.61
2019-05-14T03:28:59.795Z,99862.91
2019-05-14T03:31:32.224Z,99840.95
2019-05-14T03:34:02.069Z,99840.95
2019-05-14T03:36:34.110Z,99858.23
2019-05-14T03:38:59.380Z,99859.16
2019-05-14T03:41:30.362Z,99859.56
2019-05-14T03:43:56.352Z,99852.48
2019-05-14T03:46:41.221Z,99842.39
2019-05-14T03:48:53.617Z,99838.23
2019-05-14T03:51:20.847Z,99836.55
2019-05-14T03:53:56.886Z,99810.03
2019-05-14T03:56:19.272Z,99810.03
2019-05-14T03:58:49.424Z,99848.82
2019-05-14T04:01:20.134Z,99860.02
2019-05-14T04:03:50.407Z,99860.02
2019-05-14T04:06:19.126Z,99857.45
2019-05-14T04:08:49.533Z,99856.41
2019-05-14T04:11:16.048Z,99853.92
2019-05-14T04:13:43.528Z,99852.31
2019-05-14T04:16:13.249Z,99850.70
2019-05-14T04:18:40.926Z,99846.34
2019-05-14T04:21:09.850Z,99847.16
2019-05-14T04:23:39.623Z,99849.74
2019-05-14T04:26:09.344Z,99851.08
2019-05-14T04:28:39.037Z,99847.91
2019-05-14T04:31:05.614Z,99853.92
2019-05-14T04:33:34.543Z,99853.00
2019-05-14T04:36:01.999Z,99846.34
2019-05-14T04:38:30.123Z,99846.97
2019-05-14T04:42:00.062Z,99838.28
2019-05-14T04:44:29.908Z,99849.05
2019-05-14T04:47:00.101Z,99844.95
2019-05-14T04:49:29.626Z,99844.95
2019-05-14T04:51:59.516Z,99841.00
2019-05-14T04:54:29.859Z,99843.20
2019-05-14T04:57:00.006Z,99842.36
2019-05-14T04:59:29.936Z,99835.53
2019-05-14T05:01:59.872Z,99839.63
2019-05-14T05:04:29.924Z,99839.02
2019-05-14T05:06:59.243Z,99839.02
2019-05-14T05:09:29.376Z,99839.55
2019-05-14T05:11:59.515Z,99839.41
2019-05-14T05:14:25.749Z,99836.81
2019-05-14T05:16:53.725Z,99839.02
2019-05-14T05:19:21.986Z,99837.56
2019-05-14T05:21:51.491Z,99840.27
2019-05-14T05:24:20.423Z,99835.21
2019-05-14T05:26:49.428Z,99828.84
2019-05-14T05:29:19.235Z,99829.47
2019-05-14T05:31:48.748Z,99838.38
2019-05-14T05:34:19.194Z,99833.95
2019-05-14T05:36:48.507Z,99831.59
2019-05-14T05:39:18.984Z,99836.27
2019-05-14T05:41:49.160Z,99843.05
2019-05-14T05:44:18.827Z,99841.24
2019-05-14T05:46:49.179Z,99837.31
2019-05-14T05:49:18.657Z,99838.48
2019-05-14T05:51:48.338Z,99831.13
2019-05-14T05:56:48.430Z,99821.34
2019-05-14T05:59:18.912Z,99822.99
2019-05-14T06:01:50.269Z,99826.05
2019-05-14T06:04:18.345Z,99826.42
2019-05-14T06:06:48.240Z,99826.42
2019-05-14T06:09:15.486Z,99818.23
2019-05-14T06:11:44.492Z,99818.33
2019-05-14T06:14:12.427Z,99813.84
2019-05-14T06:16:40.404Z,99814.52
2019-05-14T06:19:08.445Z,99811.39
2019-05-14T06:21:36.751Z,99815.03
2019-05-14T06:24:04.340Z,99804.75
2019-05-14T06:27:20.616Z,99798.89
2019-05-14T06:29:50.173Z,99796.37
2019-05-14T06:32:18.947Z,99797.92
2019-05-14T06:34:48.967Z,99796.37
2019-05-14T06:37:19.089Z,99796.45
2019-05-14T06:39:48.985Z,99794.64
2019-05-14T06:42:19.350Z,99797.39
2019-05-14T06:44:49.307Z,99799.06
2019-05-14T06:47:18.454Z,99793.77
2019-05-14T06:49:48.836Z,99797.51
2019-05-14T06:52:18.801Z,99799.47
2019-05-14T06:54:49.585Z,99799.47
2019-05-14T06:57:18.042Z,99796.91
2019-05-14T06:59:45.487Z,99801.83
2019-05-14T07:02:12.863Z,99799.67
2019-05-14T07:04:40.929Z,99790.91
2019-05-14T07:07:08.697Z,99791.53
2019-05-14T07:09:38.420Z,99792.67
2019-05-14T07:12:08.890Z,99782.61
2019-05-14T07:14:38.842Z,99780.26
2019-05-14T07:17:08.860Z,99778.55
2019-05-14T07:19:38.308Z,99773.84
2019-05-14T07:22:05.908Z,99773.84
2019-05-14T07:24:38.071Z,99770.67
2019-05-14T07:27:04.807Z,99768.11
2019-05-14T07:29:33.247Z,99771.28
2019-05-14T07:32:01.996Z,99765.16
2019-05-14T07:34:30.922Z,99768.71
2019-05-14T07:37:00.370Z,99758.27
2019-05-14T07:39:29.053Z,99768.81
2019-05-14T07:41:58.996Z,99764.09
2019-05-14T07:44:29.439Z,99759.02
2019-05-14T07:46:58.838Z,99763.36
2019-05-14T07:49:29.021Z,99751.88
2019-05-14T07:51:58.766Z,99752.67
2019-05-14T07:54:28.325Z,99752.98
2019-05-14T07:56:55.766Z,99748.22
2019-05-14T07:59:23.897Z,99749.83
2019-05-14T08:01:52.596Z,99747.46
2019-05-14T08:04:20.494Z,99742.13
2019-05-14T08:06:48.899Z,99737.58
2019-05-14T08:09:18.818Z,99727.20
2019-05-14T08:11:47.895Z,99727.20
2019-05-14T08:14:15.487Z,99735.00
2019-05-14T08:16:42.985Z,99728.05
2019-05-14T08:19:26.091Z,99726.70
2019-05-14T08:21:39.602Z,99726.20
2019-05-14T08:24:08.877Z,99723.83
2019-05-14T08:26:38.274Z,99724.09
2019-05-14T08:29:05.743Z,99720.90
2019-05-14T08:31:35.246Z,99723.32
2019-05-14T08:34:06.038Z,99720.40
2019-05-14T08:36:34.250Z,99710.55
2019-05-14T08:39:05.247Z,99715.91
2019-05-14T08:41:33.252Z,99704.58
2019-05-14T08:44:00.607Z,99704.58
2019-05-14T08:46:28.390Z,99721.84
2019-05-14T08:48:58.625Z,99721.59
2019-05-14T08:51:29.363Z,99713.34
2019-05-14T08:53:59.250Z,99703.14
2019-05-14T08:56:28.497Z,99710.45
2019-05-14T08:58:58.913Z,99701.90
2019-05-14T09:01:29.322Z,99700.05
2019-05-14T09:03:59.571Z,99703.03
2019-05-14T09:06:28.975Z,99699.27
2019-05-14T09:08:59.279Z,99694.69
2019-05-14T09:11:26.307Z,99685.59
2019-05-14T09:13:55.087Z,99693.42
2019-05-14T09:16:38.377Z,99699.30
2019-05-14T09:18:53.499Z,99689.10
2019-05-14T09:21:20.901Z,99691.56
2019-05-14T09:23:48.436Z,99684.10
2019-05-14T09:26:17.927Z,99689.73
2019-05-14T09:28:45.270Z,99687.05
2019-05-14T09:31:13.494Z,99690.58
2019-05-14T09:33:42.428Z,99683.84
2019-05-14T09:36:18.932Z,99683.84
2019-05-14T09:38:42.120Z,99682.80
2019-05-14T09:41:15.307Z,99693.52
2019-05-14T09:43:42.274Z,99682.27
2019-05-14T09:46:11.787Z,99676.38
2019-05-14T09:48:41.248Z,99678.55
2019-05-14T09:51:10.859Z,99668.63
2019-05-14T09:53:39.606Z,99669.16
2019-05-14T09:56:09.238Z,99668.10
2019-05-14T09:58:38.945Z,99673.44
2019-05-14T10:01:08.742Z,99663.52
2019-05-14T10:03:39.083Z,99675.05
2019-05-14T10:06:09.781Z,99671.30
2019-05-14T10:08:39.317Z,99676.92
2019-05-14T10:11:08.497Z,99672.89
2019-05-14T10:15:48.602Z,99673.18
2019-05-14T10:18:19.073Z,99668.89
2019-05-14T10:20:49.506Z,99670.23
2019-05-14T10:23:19.144Z,99669.99
2019-05-14T10:25:47.258Z,99672.13
2019-05-14T10:28:15.822Z,99670.78
2019-05-14T10:30:43.866Z,99664.60
2019-05-14T10:33:15.073Z,99662.20
2019-05-14T10:35:41.614Z,99669.45
2019-05-14T10:38:10.809Z,99657.34
2019-05-14T10:40:39.620Z,99657.06
2019-05-14T10:43:09.494Z,99652.25
2019-05-14T10:45:38.633Z,99655.47
2019-05-14T10:48:09.675Z,99645.02
2019-05-14T10:50:55.650Z,99647.42
2019-05-14T10:53:09.302Z,99650.39
2019-05-14T10:55:38.614Z,99644.20
2019-05-14T10:58:08.880Z,99647.70
2019-05-14T11:00:41.925Z,99640.98
2019-05-14T11:03:10.749Z,99642.08
2019-05-14T11:05:41.480Z,99640.45
2019-05-14T11:08:12.013Z,99639.91
2019-05-14T11:10:42.227Z,99637.48
2019-05-14T11:13:09.740Z,99631.58
2019-05-14T11:15:39.694Z,99619.52
2019-05-14T11:18:08.894Z,99625.40
2019-05-14T11:20:41.704Z,99625.39
2019-05-14T11:23:08.915Z,99617.60
2019-05-14T11:25:38.307Z,99614.92
2019-05-14T11:28:06.594Z,99613.31
2019-05-14T11:30:34.980Z,99608.48
2019-05-14T11:33:49.740Z,99597.52
2019-05-14T11:36:18.816Z,99605.83
2019-05-14T11:38:50.239Z,99599.39
2019-05-14T11:41:18.453Z,99604.48
2019-05-14T11:43:49.197Z,99599.09
2019-05-14T11:46:24.945Z,99602.59
2019-05-14T11:48:49.104Z,99592.91
2019-05-14T11:51:20.646Z,99594.00
2019-05-14T11:53:49.443Z,99599.09
2019-05-14T11:56:19.486Z,99598.80
2019-05-14T11:58:46.873Z,99598.00
2019-05-14T12:01:14.828Z,99586.20
2019-05-14T12:03:42.242Z,99591.59
2019-05-14T12:06:10.109Z,99586.50
2019-05-14T12:08:41.791Z,99582.73
2019-05-14T12:11:08.798Z,99572.78
2019-05-14T12:13:39.188Z,99589.72
2019-05-14T12:16:08.608Z,99582.75
2019-05-14T12:18:41.372Z,99575.23
2019-05-14T12:21:08.917Z,99576.02
2019-05-14T12:23:39.308Z,99576.30
2019-05-14T12:26:09.619Z,99583.80
2019-05-14T12:28:38.686Z,99579.23
2019-05-14T12:31:09.272Z,99576.81
2019-05-14T12:33:39.532Z,99578.97
2019-05-14T12:36:10.358Z,99565.03
2019-05-14T12:38:40.238Z,99571.42
2019-05-14T12:41:09.385Z,99564.15
2019-05-14T12:43:40.171Z,99559.35
2019-05-14T12:46:10.762Z,99560.98
2019-05-14T12:48:39.624Z,99560.98
2019-05-14T12:51:09.201Z,99551.60
2019-05-14T12:53:39.586Z,99548.91
2019-05-14T12:56:09.538Z,99542.75
2019-05-14T12:58:44.887Z,99547.56
2019-05-14T13:01:10.503Z,99558.31
2019-05-14T13:03:39.887Z,99546.50
2019-05-14T13:06:10.216Z,99555.62
2019-05-14T13:08:39.924Z,99547.05
2019-05-14T13:11:09.941Z,99544.61
2019-05-14T13:13:42.869Z,99544.61
2019-05-14T13:16:11.006Z,99541.34
2019-05-14T13:18:40.346Z,99528.52
2019-05-14T13:21:09.797Z,99525.25
2019-05-14T13:23:38.629Z,99521.53
2019-05-14T13:26:10.477Z,99513.50
2019-05-14T13:28:39.938Z,99507.05
2019-05-14T13:31:09.615Z,99513.77
2019-05-14T13:33:39.520Z,99510.81
2019-05-14T13:36:09.420Z,99514.84
2019-05-14T13:38:39.723Z,99514.83
2019-05-14T13:41:09.592Z,99508.40
2019-05-14T13:43:40.283Z,99510.00
2019-05-14T13:46:12.633Z,99500.06
2019-05-14T13:48:43.386Z,99498.19
2019-05-14T13:51:12.039Z,99499.52
2019-05-14T13:54:32.247Z,99479.40
2019-05-14T13:57:01.402Z,99486.40
2019-05-14T13:59:31.440Z,99430.03
2019-05-14T14:02:00.791Z,99487.98
2019-05-14T14:04:29.599Z,99472.42
2019-05-14T14:06:59.330Z,99474.53
2019-05-14T14:09:31.445Z,99476.14
2019-05-14T14:12:00.800Z,99471.58
2019-05-14T14:14:29.600Z,99469.98
2019-05-14T14:16:59.372Z,99476.15
2019-05-14T14:19:28.422Z,99452.81
2019-05-14T14:21:59.087Z,99454.14
2019-05-14T14:24:29.250Z,99451.73
2019-05-14T14:26:58.856Z,99458.70
2019-05-14T14:29:27.787Z,99455.49
2019-05-14T14:31:58.823Z,99455.49
2019-05-14T14:34:29.121Z,99450.66
2019-05-14T14:37:00.266Z,99462.18
2019-05-14T14:39:29.425Z,99455.22
2019-05-14T14:41:59.059Z,99457.09
2019-05-14T14:44:29.214Z,99452.25
2019-05-14T14:46:58.423Z,99454.41
2019-05-14T14:49:28.172Z,99453.88
2019-05-14T14:51:58.976Z,99452.55
2019-05-14T14:54:28.916Z,99449.06
2019-05-14T14:56:59.232Z,99445.84
2019-05-14T14:59:30.601Z,99445.31
2019-05-14T15:02:01.058Z,99337.20
2019-05-14T15:04:30.353Z,99444.25
2019-05-14T15:07:00.483Z,99444.77
2019-05-14T15:09:30.643Z,99441.01
2019-05-14T15:12:00.583Z,99448.49
2019-05-14T15:14:30.050Z,99448.48
2019-05-14T15:17:00.454Z,99446.02
2019-05-14T15:19:30.032Z,99442.78
2019-05-14T15:21:59.355Z,99448.11
2019-05-14T15:24:29.024Z,99443.50
2019-05-14T15:27:07.746Z,99444.31
2019-05-14T15:29:29.986Z,99446.98
2019-05-14T15:31:59.520Z,99450.97
2019-05-14T15:34:29.862Z,99440.48
2019-05-14T15:37:00.105Z,99441.00
2019-05-14T15:39:30.198Z,99441.00
2019-05-14T15:42:05.073Z,99433.27
2019-05-14T15:44:47.442Z,99436.94
2019-05-14T15:47:01.992Z,99433.40
2019-05-14T15:49:32.048Z,99439.58
2019-05-14T15:52:01.350Z,99439.57
2019-05-14T15:54:42.899Z,99434.99
2019-05-14T15:57:01.897Z,99423.21
2019-05-14T15:59:31.250Z,99427.23
2019-05-14T16:02:00.732Z,99425.62
2019-05-14T16:04:30.692Z,99416.22
2019-05-14T16:07:00.247Z,99416.00
2019-05-14T16:09:29.832Z,99415.17
2019-05-14T16:11:58.996Z,99413.28
2019-05-14T16:14:30.067Z,99412.20
2019-05-14T16:16:59.696Z,99411.38
2019-05-14T16:19:29.340Z,99410.59
2019-05-14T16:21:58.982Z,99406.28
2019-05-14T16:24:28.768Z,99401.75
2019-05-14T16:26:59.882Z,99384.88
2019-05-14T16:29:44.194Z,99384.88
2019-05-14T16:32:01.498Z,99400.45
2019-05-14T16:34:30.796Z,99404.99
2019-05-14T16:36:59.832Z,99405.77
2019-05-14T16:39:29.829Z,99407.37
2019-05-14T16:41:58.744Z,99407.88
2019-05-14T16:44:28.507Z,99408.70
2019-05-14T16:46:58.884Z,99414.81
2019-05-14T16:49:29.965Z,99413.73
2019-05-14T16:51:59.877Z,99412.91
2019-05-14T16:54:29.862Z,99415.28
2019-05-14T16:56:59.438Z,99411.00
2019-05-14T16:59:29.521Z,99404.31
2019-05-14T17:01:58.987Z,99417.23
2019-05-14T17:04:29.358Z,99414.56
2019-05-14T17:06:59.072Z,99402.61
2019-05-14T17:09:29.025Z,99409.91
2019-05-14T17:11:59.124Z,99411.28
2019-05-14T17:14:29.410Z,99315.48
2019-05-14T17:16:59.694Z,99396.34
2019-05-14T17:19:29.918Z,99401.69
2019-05-14T17:21:59.588Z,99401.72
2019-05-14T17:24:29.492Z,99406.30
2019-05-14T17:26:58.781Z,99403.09
2019-05-14T17:29:28.625Z,99401.17
2019-05-14T17:31:57.685Z,99400.16
2019-05-14T17:34:29.364Z,99398.28
2019-05-14T17:37:43.105Z,99399.65
2019-05-14T17:40:12.360Z,99401.80
2019-05-14T17:42:42.602Z,99399.67
2019-05-14T17:45:12.022Z,99398.91
2019-05-14T17:47:42.033Z,99390.87
2019-05-14T17:50:11.452Z,99388.93
2019-05-14T17:52:44.002Z,99396.42
2019-05-14T17:55:12.514Z,99396.70
2019-05-14T17:57:47.637Z,99398.33
2019-05-14T18:00:14.943Z,99390.53
2019-05-14T18:02:44.246Z,99373.38
2019-05-14T18:05:13.842Z,99373.38
2019-05-14T18:07:43.602Z,99388.39
2019-05-14T18:10:12.768Z,99393.45
2019-05-14T18:12:41.595Z,99394.77
2019-05-14T18:15:10.758Z,99394.21
2019-05-14T18:17:40.427Z,99385.63
2019-05-14T18:20:09.752Z,99386.67
2019-05-14T18:22:41.993Z,99391.50
2019-05-14T18:25:09.764Z,99391.77
2019-05-14T18:27:39.463Z,99392.51
2019-05-14T18:30:09.570Z,99385.74
2019-05-14T18:32:39.334Z,99398.56
2019-05-14T18:35:08.597Z,99389.97
2019-05-14T18:37:38.947Z,99393.98
2019-05-14T18:40:09.222Z,99396.09
2019-05-14T18:42:39.404Z,99395.06
2019-05-14T18:45:09.599Z,99393.98
2019-05-14T18:47:40.053Z,99397.98
2019-05-14T18:50:09.407Z,99398.26
2019-05-14T18:52:40.091Z,99402.78
2019-05-14T18:57:02.891Z,99403.61
2019-05-14T18:59:32.653Z,99403.30
2019-05-14T19:02:01.884Z,99399.22
2019-05-14T19:04:30.911Z,99402.41
2019-05-14T19:07:00.116Z,99402.36
2019-05-14T19:09:29.982Z,99398.59
2019-05-14T19:11:59.329Z,99402.27
2019-05-14T19:14:29.383Z,99402.27
2019-05-14T19:16:59.734Z,99396.63
2019-05-14T19:19:29.521Z,99401.44
2019-05-14T19:21:59.122Z,99404.83
2019-05-14T19:24:28.754Z,99403.45
2019-05-14T19:26:59.610Z,99405.84
2019-05-14T19:29:28.920Z,99405.84
2019-05-14T19:31:58.109Z,99406.63
2019-05-14T19:34:28.704Z,99412.73
2019-05-14T19:36:58.005Z,99416.23
2019-05-14T19:39:28.188Z,99415.38
2019-05-14T19:41:57.523Z,99411.05
2019-05-14T19:44:26.802Z,99408.37
2019-05-14T19:46:55.969Z,99413.95
2019-05-14T19:49:26.121Z,99419.81
2019-05-14T19:51:55.753Z,99424.63
2019-05-14T19:54:25.698Z,99425.40
2019-05-14T19:56:57.593Z,99428.59
2019-05-14T19:59:28.760Z,99433.93
2019-05-14T20:01:58.912Z,99437.66
2019-05-14T20:04:29.234Z,99435.75
2019-05-14T20:06:58.902Z,99438.66
2019-05-14T20:09:29.418Z,99439.48
2019-05-14T20:11:58.732Z,99438.94
2019-05-14T20:14:28.814Z,99443.75
2019-05-14T20:16:58.419Z,99442.40
2019-05-14T20:19:28.655Z,99442.40
2019-05-14T20:21:58.794Z,99445.83
2019-05-14T20:25:03.728Z,99445.32
2019-05-14T20:27:34.058Z,99441.81
2019-05-14T20:30:04.496Z,99442.08
2019-05-14T20:32:34.703Z,99445.83
2019-05-14T20:35:04.901Z,99442.85
2019-05-14T20:37:34.061Z,99441.81
2019-05-14T20:40:03.643Z,99440.98
2019-05-14T20:42:33.251Z,99438.04
2019-05-14T20:45:02.510Z,99446.55
2019-05-14T20:47:31.773Z,99439.58
2019-05-14T20:50:01.009Z,99445.22
2019-05-14T20:52:30.272Z,99435.88
2019-05-14T20:54:59.494Z,99437.98
2019-05-14T20:57:33.354Z,99438.74
2019-05-14T21:00:00.404Z,99435.80
2019-05-14T21:02:29.678Z,99441.64
2019-05-14T21:05:04.196Z,99435.28
2019-05-14T21:07:30.801Z,99435.53
2019-05-14T21:09:59.928Z,99445.16
2019-05-14T21:12:29.121Z,99438.19
2019-05-14T21:14:59.098Z,99433.09
2019-05-14T21:17:28.771Z,99426.95
2019-05-14T21:19:58.065Z,99432.50
2019-05-14T21:22:29.110Z,99443.17
2019-05-14T21:24:58.410Z,99435.66
2019-05-14T21:27:40.811Z,99441.02
2019-05-14T21:30:00.721Z,99437.25
2019-05-14T21:32:30.357Z,99440.73
2019-05-14T21:35:00.598Z,99440.73
2019-05-14T21:37:30.262Z,99434.58
2019-05-14T21:39:59.801Z,99431.93
2019-05-14T21:42:28.710Z,99430.05
2019-05-14T21:44:58.572Z,99431.91
2019-05-14T21:47:28.560Z,99428.72
2019-05-14T21:49:58.433Z,99434.29
2019-05-14T21:52:28.974Z,99434.29
2019-05-14T21:54:58.682Z,99437.23
2019-05-14T21:57:28.369Z,99440.44
2019-05-14T21:59:58.866Z,99441.23
2019-05-14T22:04:23.629Z,99437.23
2019-05-14T22:06:53.498Z,99443.33
2019-05-14T22:09:23.715Z,99436.62
2019-05-14T22:11:53.438Z,99445.98
2019-05-14T22:14:23.887Z,99442.50
2019-05-14T22:16:53.454Z,99436.71
2019-05-14T22:19:23.441Z,99428.95
2019-05-14T22:21:52.758Z,99427.05
2019-05-14T22:24:21.884Z,99428.13
2019-05-14T22:26:51.119Z,99428.95
2019-05-14T22:29:20.359Z,99428.11
2019-05-14T22:31:49.489Z,99423.61
2019-05-14T22:34:18.640Z,99418.20
2019-05-14T22:36:48.462Z,99417.13
2019-05-14T22:39:19.890Z,99411.52
2019-05-14T22:41:49.323Z,99412.59
2019-05-14T22:44:18.752Z,99406.14
2019-05-14T22:46:49.006Z,99398.33
2019-05-14T22:49:19.127Z,99396.50
2019-05-14T22:51:49.311Z,99394.58
2019-05-14T22:54:20.838Z,99403.90
2019-05-14T22:56:50.421Z,99398.54
2019-05-14T22:59:20.644Z,99395.62
2019-05-14T23:01:49.604Z,99395.60
2019-05-14T23:04:18.783Z,99392.95
2019-05-14T23:06:48.944Z,99392.16
2019-05-14T23:11:03.327Z,99396.12
2019-05-14T23:13:32.495Z,99398.79
2019-05-14T23:16:01.857Z,99392.88
2019-05-14T23:18:31.019Z,99391.55
2019-05-14T23:21:00.357Z,99391.80
2019-05-14T23:23:29.537Z,99393.88
2019-05-14T23:25:59.013Z,99399.44
2019-05-14T23:28:41.903Z,99393.92
2019-05-14T23:31:00.416Z,99396.23
2019-05-14T23:33:30.005Z,99392.50
2019-05-14T23:35:59.383Z,99395.73
2019-05-14T23:38:29.078Z,99391.92
2019-05-14T23:40:58.842Z,99384.41
2019-05-14T23:43:29.383Z,99294.86
2019-05-14T23:45:58.875Z,99294.86
2019-05-14T23:48:29.031Z,99384.14
2019-05-14T23:50:58.655Z,99378.54
2019-05-14T23:53:29.176Z,99371.59
2019-05-14T23:55:58.608Z,99368.09
2019-05-14T23:58:28.969Z,99365.62
